Time;durP1;ratioP1;P1;durP2;ratioP2;P2;SDS_P1;SDS_P2;PMS_P1;PMS_P2;Temp;Humidity;BMP_temperature;BMP_pressure;BME280_temperature;BME280_humidity;BME280_pressure;Samples;Min_cycle;Max_cycle;Signal;HPM_P1;HPM_P2
2023/12/17 00:01:31;;;;;;;11.87;3.40;;;10.90;99.90;;;;;;5066864;28;39635;-79
2023/12/17 00:03:57;;;;;;;12.67;3.03;;;10.90;99.90;;;;;;5062905;28;38423;-79
2023/12/17 00:06:23;;;;;;;9.93;3.37;;;10.90;99.90;;;;;;5062237;28;35979;-80
2023/12/17 00:08:49;;;;;;;8.73;2.93;;;10.90;99.90;;;;;;5059708;28;36043;-80
2023/12/17 00:11:16;;;;;;;9.85;2.35;;;10.90;99.90;;;;;;5055135;28;38810;-80
2023/12/17 00:13:45;;;;;;;10.00;2.87;;;10.90;99.90;;;;;;5069800;28;39008;-80
2023/12/17 00:16:11;;;;;;;10.00;2.83;;;10.90;99.90;;;;;;5062960;28;36966;-79
2023/12/17 00:18:37;;;;;;;8.40;2.50;;;10.90;99.90;;;;;;5066638;28;37947;-80
2023/12/17 00:21:03;;;;;;;9.50;2.50;;;10.90;99.90;;;;;;5060988;28;38458;-80
2023/12/17 00:23:29;;;;;;;7.20;2.83;;;10.90;99.90;;;;;;5065258;28;37292;-79
2023/12/17 00:25:55;;;;;;;13.97;2.60;;;10.90;99.90;;;;;;5066295;28;36773;-79
2023/12/17 00:28:22;;;;;;;8.17;2.37;;;10.90;99.90;;;;;;5063974;28;37492;-80
2023/12/17 00:30:48;;;;;;;7.27;2.30;;;10.90;99.90;;;;;;5067013;28;39144;-80
2023/12/17 00:33:14;;;;;;;4.60;1.93;;;10.90;99.90;;;;;;5064976;28;38417;-79
2023/12/17 00:35:40;;;;;;;12.97;2.07;;;10.90;99.90;;;;;;5068631;28;36550;-80
2023/12/17 00:38:06;;;;;;;11.17;2.00;;;10.90;99.90;;;;;;5061562;28;37430;-79
2023/12/17 00:40:32;;;;;;;9.83;2.53;;;10.90;99.90;;;;;;5064346;28;39881;-79
2023/12/17 00:42:58;;;;;;;11.03;2.50;;;10.90;99.90;;;;;;5069188;28;37748;-80
2023/12/17 00:45:25;;;;;;;15.13;3.50;;;10.90;99.90;;;;;;5065142;28;36715;-80
2023/12/17 00:47:51;;;;;;;12.87;2.50;;;10.90;99.90;;;;;;5067118;28;36126;-79
2023/12/17 00:50:17;;;;;;;12.93;2.90;;;11.00;99.90;;;;;;5063263;28;40994;-80
2023/12/17 00:52:43;;;;;;;10.43;3.00;;;11.00;99.90;;;;;;5067633;28;39351;-81
2023/12/17 00:55:09;;;;;;;15.90;3.20;;;11.00;99.90;;;;;;5067551;28;37235;-79
2023/12/17 00:57:35;;;;;;;12.20;3.13;;;11.00;99.90;;;;;;5067385;28;38093;-79
2023/12/17 01:00:03;;;;;;;15.50;3.97;;;10.90;99.90;;;;;;5060463;28;38341;-79
2023/12/17 01:02:29;;;;;;;12.43;3.37;;;10.90;99.90;;;;;;5067765;28;38627;-80
2023/12/17 01:04:55;;;;;;;11.93;4.28;;;10.90;99.90;;;;;;5062115;28;37497;-80
2023/12/17 01:07:21;;;;;;;13.80;3.07;;;10.90;99.90;;;;;;5057309;28;36990;-81
2023/12/17 01:09:48;;;;;;;16.10;3.50;;;10.90;99.90;;;;;;5065978;28;38589;-79
2023/12/17 01:12:14;;;;;;;10.90;2.83;;;10.90;99.90;;;;;;5063146;28;38723;-79
2023/12/17 01:14:40;;;;;;;15.83;3.73;;;10.90;99.90;;;;;;5063645;28;37006;-80
2023/12/17 01:17:07;;;;;;;19.23;3.60;;;10.90;99.90;;;;;;5060823;28;37780;-80
2023/12/17 01:19:38;;;;;;;17.75;4.50;;;10.90;99.90;;;;;;5063554;28;38803;-80
2023/12/17 01:22:05;;;;;;;16.47;3.27;;;10.90;99.90;;;;;;5060727;28;39982;-79
2023/12/17 01:24:32;;;;;;;13.02;3.47;;;10.90;99.90;;;;;;5054264;28;35180;-79
2023/12/17 01:27:01;;;;;;;16.33;3.75;;;10.80;99.90;;;;;;5065549;28;37381;-81
2023/12/17 01:29:27;;;;;;;20.53;4.07;;;10.80;99.90;;;;;;5065447;28;48998;-79
2023/12/17 01:31:54;;;;;;;12.57;3.13;;;10.80;99.90;;;;;;5063630;28;38770;-81
2023/12/17 01:34:20;;;;;;;17.83;3.53;;;10.80;99.90;;;;;;5062091;28;38439;-80
2023/12/17 01:36:47;;;;;;;24.53;4.77;;;10.80;99.90;;;;;;5066462;28;37090;-80
2023/12/17 01:39:13;;;;;;;19.60;5.10;;;10.80;99.90;;;;;;5059269;28;38715;-83
2023/12/17 01:41:39;;;;;;;21.08;4.50;;;10.80;99.90;;;;;;5061073;28;37423;-78
2023/12/17 01:44:05;;;;;;;16.63;4.30;;;10.80;99.90;;;;;;5070180;28;37479;-80
2023/12/17 01:46:31;;;;;;;19.97;4.43;;;10.80;99.90;;;;;;5066102;28;38391;-78
2023/12/17 01:48:58;;;;;;;22.90;5.05;;;10.80;99.90;;;;;;5069094;28;37897;-79
2023/12/17 01:51:25;;;;;;;20.83;5.60;;;10.80;99.90;;;;;;5070834;28;37992;-79
2023/12/17 01:53:51;;;;;;;19.53;5.43;;;10.80;99.90;;;;;;5072080;28;38097;-79
2023/12/17 01:56:17;;;;;;;21.43;5.73;;;10.80;99.90;;;;;;5062936;28;36827;-79
2023/12/17 01:58:44;;;;;;;17.43;4.70;;;10.80;99.90;;;;;;5061171;28;38075;-80
2023/12/17 02:03:46;;;;;;;21.90;5.40;;;10.80;99.90;;;;;;5077242;22;20053;-78
2023/12/17 02:06:12;;;;;;;24.20;5.80;;;10.80;99.90;;;;;;5038542;28;37352;-78
2023/12/17 02:08:41;;;;;;;17.53;6.23;;;10.80;99.90;;;;;;5036895;28;38337;-78
2023/12/17 02:11:08;;;;;;;15.87;5.77;;;10.80;99.90;;;;;;5037283;28;37818;-78
2023/12/17 02:13:34;;;;;;;18.20;5.27;;;10.80;99.90;;;;;;5036582;28;40977;-78
2023/12/17 02:16:00;;;;;;;18.07;5.63;;;10.80;99.90;;;;;;5036924;28;36232;-77
2023/12/17 02:18:26;;;;;;;22.37;5.50;;;10.80;99.90;;;;;;5030089;28;38310;-78
2023/12/17 02:20:53;;;;;;;24.03;6.77;;;10.80;99.90;;;;;;5035702;28;38600;-78
2023/12/17 02:23:19;;;;;;;18.00;5.60;;;10.80;99.90;;;;;;5038845;28;37803;-78
2023/12/17 02:25:46;;;;;;;20.70;6.50;;;10.80;99.90;;;;;;5037959;28;36864;-78
2023/12/17 02:28:12;;;;;;;24.17;7.67;;;10.80;99.90;;;;;;5037481;28;39057;-78
2023/12/17 02:30:38;;;;;;;27.33;7.13;;;10.70;99.90;;;;;;5036112;28;38428;-78
2023/12/17 02:33:04;;;;;;;21.10;7.17;;;10.70;99.90;;;;;;5036558;28;39044;-78
2023/12/17 02:35:31;;;;;;;18.45;6.97;;;10.70;99.90;;;;;;5034866;28;36906;-78
2023/12/17 02:37:57;;;;;;;23.30;6.97;;;10.70;99.90;;;;;;5031594;28;38280;-78
2023/12/17 02:40:23;;;;;;;25.70;8.10;;;10.70;99.90;;;;;;5039402;28;37993;-78
2023/12/17 02:42:49;;;;;;;19.37;8.37;;;10.70;99.90;;;;;;5034613;28;37181;-78
2023/12/17 02:45:15;;;;;;;21.83;8.93;;;10.70;99.90;;;;;;5033127;28;36227;-78
2023/12/17 02:47:41;;;;;;;23.80;8.43;;;10.70;99.90;;;;;;5032529;28;38933;-78
2023/12/17 02:50:10;;;;;;;22.90;8.53;;;10.70;99.90;;;;;;5037560;28;38334;-78
2023/12/17 02:52:36;;;;;;;27.13;7.80;;;10.70;99.90;;;;;;5030455;28;37785;-78
2023/12/17 02:55:03;;;;;;;22.77;8.13;;;10.70;99.90;;;;;;5033906;28;37492;-78
2023/12/17 02:57:29;;;;;;;24.83;7.73;;;10.60;99.90;;;;;;5036517;28;47908;-77
2023/12/17 02:59:55;;;;;;;22.00;8.80;;;10.70;99.90;;;;;;5036071;28;37255;-78
2023/12/17 03:02:21;;;;;;;28.30;9.17;;;10.70;99.90;;;;;;5035386;28;36427;-78
2023/12/17 03:04:47;;;;;;;29.73;9.07;;;10.60;99.90;;;;;;5035958;28;37434;-78
2023/12/17 03:07:14;;;;;;;22.23;9.63;;;10.60;99.90;;;;;;5036091;28;39122;-78
2023/12/17 03:09:40;;;;;;;29.43;9.93;;;10.60;99.90;;;;;;5035289;28;38450;-78
2023/12/17 03:12:06;;;;;;;26.47;10.27;;;10.60;99.90;;;;;;5030642;28;37999;-78
2023/12/17 03:14:32;;;;;;;30.60;11.17;;;10.60;99.90;;;;;;5037504;28;37674;-78
2023/12/17 03:16:58;;;;;;;30.57;11.73;;;10.60;99.90;;;;;;5035696;28;39844;-78
2023/12/17 03:19:25;;;;;;;30.30;11.37;;;10.60;99.90;;;;;;5030222;28;37254;-78
2023/12/17 03:21:51;;;;;;;30.47;11.37;;;10.50;99.90;;;;;;5034329;28;38391;-79
2023/12/17 03:24:17;;;;;;;29.57;11.33;;;10.50;99.90;;;;;;5032184;28;36799;-78
2023/12/17 03:26:43;;;;;;;32.70;11.93;;;10.50;99.90;;;;;;5033382;28;39011;-79
2023/12/17 03:29:10;;;;;;;27.13;10.57;;;10.50;99.90;;;;;;5031518;28;38233;-78
2023/12/17 03:31:36;;;;;;;40.17;10.50;;;10.50;99.90;;;;;;5034867;28;37011;-78
2023/12/17 03:34:02;;;;;;;36.27;11.50;;;10.50;99.90;;;;;;5032628;28;36829;-79
2023/12/17 03:36:28;;;;;;;40.80;11.57;;;10.50;99.90;;;;;;5032051;28;38481;-79
2023/12/17 03:38:54;;;;;;;40.40;10.37;;;10.50;99.90;;;;;;5031915;28;37735;-77
2023/12/17 03:42:25;;;;;;;42.60;12.53;;;10.50;99.90;;;;;;5024449;28;38492;-78
2023/12/17 03:51:21;;;;;;;38.73;11.47;;;10.50;99.90;;;;;;4803230;29;38705;-78
2023/12/17 03:53:47;;;;;;;32.00;12.83;;;10.40;99.90;;;;;;4875273;29;37643;-78
2023/12/17 03:56:15;;;;;;;34.27;12.03;;;10.50;99.90;;;;;;4977940;28;36739;-78
2023/12/17 03:58:43;;;;;;;48.37;13.87;;;10.50;99.90;;;;;;5036406;28;38765;-78
2023/12/17 04:01:10;;;;;;;39.83;12.57;;;10.40;99.90;;;;;;5022469;28;38739;-78
2023/12/17 04:03:36;;;;;;;41.60;11.67;;;10.40;99.90;;;;;;5030472;28;37062;-79
2023/12/17 04:06:05;;;;;;;31.27;11.80;;;10.40;99.90;;;;;;5029857;28;37651;-78
2023/12/17 04:08:31;;;;;;;41.87;14.93;;;10.40;99.90;;;;;;5032817;28;37959;-78
2023/12/17 04:10:57;;;;;;;36.03;13.27;;;10.40;99.90;;;;;;5033494;28;37721;-79
2023/12/17 04:13:23;;;;;;;31.63;12.03;;;10.40;99.90;;;;;;5032247;28;37153;-78
2023/12/17 04:15:50;;;;;;;34.23;12.77;;;10.40;99.90;;;;;;5034171;28;37812;-78
2023/12/17 04:18:16;;;;;;;36.13;13.77;;;10.40;99.90;;;;;;5035873;28;38806;-79
2023/12/17 04:20:42;;;;;;;34.23;12.43;;;10.40;99.90;;;;;;5028080;28;38666;-78
2023/12/17 04:23:08;;;;;;;35.90;14.33;;;10.40;99.90;;;;;;5034117;28;37996;-78
2023/12/17 04:25:34;;;;;;;38.17;14.73;;;10.40;99.90;;;;;;5030424;28;36225;-78
2023/12/17 04:28:00;;;;;;;38.43;15.40;;;10.40;99.90;;;;;;5029344;28;39030;-78
2023/12/17 04:30:26;;;;;;;42.17;16.87;;;10.40;99.90;;;;;;5033756;28;47458;-78
2023/12/17 04:32:53;;;;;;;50.83;16.03;;;10.40;99.90;;;;;;5033010;28;38063;-77
2023/12/17 04:35:19;;;;;;;41.63;16.70;;;10.40;99.90;;;;;;5031430;28;36036;-78
2023/12/17 04:37:45;;;;;;;42.87;16.47;;;10.40;99.90;;;;;;5033949;28;39901;-78
2023/12/17 04:40:11;;;;;;;43.40;16.87;;;10.40;99.90;;;;;;5031192;28;38221;-78
2023/12/17 04:42:38;;;;;;;35.67;16.87;;;10.40;99.90;;;;;;5031364;28;36209;-78
2023/12/17 04:45:06;;;;;;;40.23;16.90;;;10.40;99.90;;;;;;5032943;28;39773;-78
2023/12/17 04:47:32;;;;;;;42.20;16.07;;;10.40;99.90;;;;;;5032566;28;48494;-78
2023/12/17 04:50:00;;;;;;;33.97;13.50;;;10.40;99.90;;;;;;5034008;28;38384;-79
2023/12/17 04:52:26;;;;;;;41.63;13.97;;;10.40;99.90;;;;;;5026093;28;36913;-78
2023/12/17 04:54:52;;;;;;;34.73;13.33;;;10.40;99.90;;;;;;5033618;28;36360;-78
2023/12/17 04:57:18;;;;;;;33.10;13.43;;;10.40;99.90;;;;;;5031660;28;39458;-78
2023/12/17 04:59:44;;;;;;;29.07;12.80;;;10.40;99.90;;;;;;5034379;28;37132;-79
2023/12/17 05:02:10;;;;;;;32.20;13.30;;;10.40;99.90;;;;;;5031761;28;36542;-78
2023/12/17 05:04:36;;;;;;;28.77;13.20;;;10.40;99.90;;;;;;5032413;28;36432;-78
2023/12/17 05:07:02;;;;;;;27.43;13.87;;;10.40;99.90;;;;;;5031989;28;38389;-78
2023/12/17 05:09:28;;;;;;;33.33;14.63;;;10.40;99.90;;;;;;5031887;28;37179;-78
2023/12/17 05:11:56;;;;;;;32.17;13.90;;;10.40;99.90;;;;;;5031227;28;37620;-78
2023/12/17 05:14:22;;;;;;;29.23;15.07;;;10.40;99.90;;;;;;5023420;28;37206;-79
2023/12/17 05:16:48;;;;;;;27.90;14.43;;;10.40;99.90;;;;;;5032272;28;38131;-78
2023/12/17 05:19:14;;;;;;;30.33;15.07;;;10.40;99.90;;;;;;5032621;28;39604;-78
2023/12/17 05:21:40;;;;;;;36.00;16.40;;;10.40;99.90;;;;;;5032299;28;37376;-78
2023/12/17 05:24:07;;;;;;;38.20;16.80;;;10.40;99.90;;;;;;5033476;28;37863;-79
2023/12/17 05:26:33;;;;;;;32.60;16.00;;;10.40;99.90;;;;;;5031810;28;39801;-78
2023/12/17 05:28:59;;;;;;;37.77;19.40;;;10.40;99.90;;;;;;5034682;28;38577;-78
2023/12/17 05:31:25;;;;;;;35.77;16.63;;;10.40;99.90;;;;;;5030685;28;38392;-79
2023/12/17 05:33:51;;;;;;;36.60;17.43;;;10.40;99.90;;;;;;5030997;28;36468;-78
2023/12/17 05:36:18;;;;;;;32.33;19.03;;;10.40;99.90;;;;;;5020367;28;37925;-79
2023/12/17 05:38:45;;;;;;;36.43;20.03;;;10.40;99.90;;;;;;5032554;28;39828;-79
2023/12/17 05:41:11;;;;;;;38.90;21.83;;;10.40;99.90;;;;;;5029338;28;38461;-78
2023/12/17 05:43:38;;;;;;;47.13;25.27;;;10.40;99.90;;;;;;5030451;28;36469;-78
2023/12/17 05:46:04;;;;;;;51.13;28.00;;;10.40;99.90;;;;;;5033811;28;41482;-78
2023/12/17 05:48:30;;;;;;;43.50;28.07;;;10.40;99.90;;;;;;5031180;28;38294;-78
2023/12/17 05:50:59;;;;;;;60.87;28.47;;;10.40;99.90;;;;;;5028250;28;36723;-77
2023/12/17 05:53:25;;;;;;;60.23;30.33;;;10.40;99.90;;;;;;5029394;28;37465;-78
2023/12/17 05:55:53;;;;;;;60.43;30.43;;;10.40;99.90;;;;;;5025740;28;39211;-78
2023/12/17 05:58:19;;;;;;;68.33;32.20;;;10.40;99.90;;;;;;5040009;28;38925;-78
2023/12/17 06:00:45;;;;;;;53.53;30.33;;;10.40;99.90;;;;;;5034555;28;38118;-78
2023/12/17 06:03:11;;;;;;;63.20;33.13;;;10.30;99.90;;;;;;5034702;28;38120;-78
2023/12/17 06:05:37;;;;;;;73.80;34.57;;;10.30;99.90;;;;;;5031300;28;39658;-79
2023/12/17 06:08:04;;;;;;;52.03;29.77;;;10.30;99.90;;;;;;5028770;28;37952;-78
2023/12/17 06:10:30;;;;;;;57.57;29.83;;;10.30;99.90;;;;;;5026492;28;36836;-79
2023/12/17 06:12:56;;;;;;;54.53;27.40;;;10.30;99.90;;;;;;5030895;28;37168;-79
2023/12/17 06:19:12;;;;;;;;;;;;;;;;;;;;;
2023/12/17 06:32:54;;;;;;;37.10;20.67;;;10.20;99.90;;;;;;4841231;29;48897;-78
2023/12/17 06:35:33;;;;;;;37.63;21.77;;;10.20;99.90;;;;;;4853915;29;48403;-79
2023/12/17 06:37:59;;;;;;;51.20;22.50;;;10.20;99.90;;;;;;4838149;29;36175;-78
2023/12/17 06:40:28;;;;;;;40.27;20.77;;;10.10;99.90;;;;;;4869265;29;40215;-78
2023/12/17 06:43:01;;;;;;;35.17;21.07;;;10.10;99.90;;;;;;4906035;28;39472;-78
2023/12/17 06:45:28;;;;;;;36.70;20.67;;;10.10;99.90;;;;;;5038797;28;48779;-78
2023/12/17 06:47:54;;;;;;;38.27;21.40;;;10.10;99.90;;;;;;5037285;28;37960;-78
2023/12/17 06:50:20;;;;;;;36.07;20.30;;;10.10;99.90;;;;;;5034582;28;38427;-78
2023/12/17 06:52:46;;;;;;;37.03;19.20;;;10.00;99.90;;;;;;5034504;28;37290;-78
2023/12/17 06:55:12;;;;;;;38.33;21.93;;;10.00;99.90;;;;;;5034256;28;37120;-78
2023/12/17 06:57:46;;;;;;;36.63;21.60;;;10.00;99.90;;;;;;5036281;28;36253;-78
2023/12/17 07:00:14;;;;;;;40.43;21.80;;;10.00;99.90;;;;;;5039718;28;38287;-78
2023/12/17 07:02:41;;;;;;;41.23;21.00;;;10.00;99.90;;;;;;5037643;28;38425;-78
2023/12/17 07:05:08;;;;;;;34.97;19.80;;;9.90;99.90;;;;;;5036247;28;36492;-78
2023/12/17 07:07:35;;;;;;;43.33;20.60;;;9.90;99.90;;;;;;5035501;28;37736;-79
2023/12/17 07:10:01;;;;;;;38.83;21.27;;;9.90;99.90;;;;;;5037921;28;37919;-80
2023/12/17 07:12:27;;;;;;;39.43;23.07;;;9.90;99.90;;;;;;5037154;28;38325;-79
2023/12/17 07:14:53;;;;;;;41.77;21.13;;;9.90;99.90;;;;;;5036040;28;36862;-79
2023/12/17 07:17:19;;;;;;;39.60;20.43;;;9.80;99.90;;;;;;5029256;28;36411;-78
2023/12/17 07:19:45;;;;;;;35.90;20.40;;;9.80;99.90;;;;;;5027144;28;37822;-78
2023/12/17 07:22:11;;;;;;;37.30;20.87;;;9.90;99.90;;;;;;5028209;28;38012;-79
2023/12/17 07:24:37;;;;;;;37.90;20.60;;;9.80;99.90;;;;;;5030245;28;38372;-78
2023/12/17 07:27:04;;;;;;;39.17;20.40;;;9.90;99.90;;;;;;5027130;28;36827;-78
2023/12/17 07:29:30;;;;;;;32.40;20.57;;;9.80;99.90;;;;;;5030513;28;37529;-78
2023/12/17 07:31:59;;;;;;;35.37;20.27;;;9.80;99.90;;;;;;5032893;28;38646;-77
2023/12/17 07:34:25;;;;;;;32.03;20.43;;;9.80;99.90;;;;;;5021059;28;38504;-77
2023/12/17 07:36:51;;;;;;;35.43;20.90;;;9.80;99.90;;;;;;5025629;28;37250;-77
2023/12/17 07:39:18;;;;;;;38.00;20.03;;;9.80;99.90;;;;;;5022926;28;39678;-77
2023/12/17 07:41:44;;;;;;;31.13;19.43;;;9.70;99.90;;;;;;5027146;28;38350;-77
2023/12/17 07:44:10;;;;;;;29.50;18.50;;;9.80;99.90;;;;;;5024527;28;37721;-77
2023/12/17 07:46:36;;;;;;;33.03;19.07;;;9.70;99.90;;;;;;5019912;28;36247;-78
2023/12/17 07:49:02;;;;;;;34.13;18.97;;;9.80;99.90;;;;;;5028304;28;37984;-77
2023/12/17 07:51:28;;;;;;;31.53;20.20;;;9.80;99.90;;;;;;5031817;28;38769;-77
2023/12/17 07:53:54;;;;;;;30.47;19.70;;;9.70;99.90;;;;;;5030637;28;37099;-77
2023/12/17 07:56:21;;;;;;;29.90;19.40;;;9.70;99.90;;;;;;5036180;28;37753;-77
2023/12/17 07:58:47;;;;;;;29.90;19.57;;;9.70;99.90;;;;;;5045725;28;39039;-77
2023/12/17 08:01:13;;;;;;;31.40;20.30;;;9.70;99.90;;;;;;5047225;28;37736;-76
2023/12/17 08:03:39;;;;;;;31.60;20.00;;;9.70;99.90;;;;;;5038401;28;36496;-77
2023/12/17 08:06:06;;;;;;;36.97;21.03;;;9.70;99.90;;;;;;5040882;28;37676;-77
2023/12/17 08:08:32;;;;;;;47.40;21.80;;;9.70;99.90;;;;;;5043687;28;39055;-77
2023/12/17 08:10:58;;;;;;;36.20;20.03;;;9.70;99.90;;;;;;5039703;28;37107;-76
2023/12/17 08:13:24;;;;;;;40.87;22.03;;;9.70;99.90;;;;;;5044335;28;39983;-77
2023/12/17 08:15:50;;;;;;;36.10;20.97;;;9.60;99.90;;;;;;5038421;28;37293;-76
2023/12/17 08:18:16;;;;;;;37.93;21.77;;;9.60;99.90;;;;;;5038515;28;39390;-78
2023/12/17 08:20:42;;;;;;;33.27;21.20;;;9.60;99.90;;;;;;5035628;28;37230;-76
2023/12/17 08:23:08;;;;;;;33.47;21.73;;;9.60;99.90;;;;;;5028211;28;36902;-76
2023/12/17 08:25:38;;;;;;;36.10;21.80;;;9.60;99.90;;;;;;5022088;28;36390;-77
2023/12/17 08:28:05;;;;;;;37.90;22.33;;;9.60;99.90;;;;;;5022098;28;38436;-78
2023/12/17 08:30:31;;;;;;;31.00;21.30;;;9.50;99.90;;;;;;5023290;28;38749;-77
2023/12/17 08:32:57;;;;;;;39.60;22.13;;;9.50;99.90;;;;;;5024575;28;36629;-77
2023/12/17 08:35:23;;;;;;;41.67;23.50;;;9.50;99.90;;;;;;5025180;28;37631;-78
2023/12/17 08:37:49;;;;;;;40.47;22.63;;;9.60;99.90;;;;;;5021653;28;40460;-78
2023/12/17 08:40:15;;;;;;;43.63;25.57;;;9.60;99.90;;;;;;5023474;28;38445;-77
2023/12/17 08:42:41;;;;;;;45.30;26.50;;;9.60;99.90;;;;;;5028152;28;38254;-77
2023/12/17 08:45:08;;;;;;;52.50;27.30;;;9.60;99.90;;;;;;5020447;28;36506;-77
2023/12/17 08:47:34;;;;;;;55.03;28.90;;;9.50;99.90;;;;;;5028995;28;38877;-77
2023/12/17 08:50:01;;;;;;;52.07;28.60;;;9.50;99.90;;;;;;5025572;28;37492;-76
2023/12/17 08:52:27;;;;;;;55.33;30.67;;;9.50;99.90;;;;;;5027685;28;38113;-78
2023/12/17 08:54:53;;;;;;;54.40;30.17;;;9.50;99.90;;;;;;5028196;28;37843;-79
2023/12/17 08:57:19;;;;;;;52.53;29.63;;;9.40;99.90;;;;;;5029453;28;38363;-77
2023/12/17 08:59:45;;;;;;;47.07;29.03;;;9.40;99.90;;;;;;5028673;28;37726;-78
2023/12/17 09:02:11;;;;;;;42.73;28.00;;;9.40;99.90;;;;;;5028507;28;37305;-78
2023/12/17 09:04:37;;;;;;;44.03;28.00;;;9.40;99.90;;;;;;5033092;28;36605;-77
2023/12/17 09:07:03;;;;;;;47.60;28.13;;;9.40;99.90;;;;;;5031421;28;39997;-78
2023/12/17 09:09:29;;;;;;;42.90;28.63;;;9.40;99.90;;;;;;5030867;28;38107;-78
2023/12/17 09:11:56;;;;;;;41.00;27.97;;;9.40;99.90;;;;;;5023964;28;38560;-78
2023/12/17 09:14:22;;;;;;;37.73;26.73;;;9.40;99.90;;;;;;5029521;28;37650;-78
2023/12/17 09:16:48;;;;;;;45.00;28.63;;;9.50;99.90;;;;;;5028144;28;37992;-77
2023/12/17 09:19:14;;;;;;;48.43;29.53;;;9.40;99.90;;;;;;5030970;28;39503;-78
2023/12/17 09:21:40;;;;;;;35.13;27.17;;;9.40;99.90;;;;;;5028834;28;36929;-78
2023/12/17 09:24:06;;;;;;;40.93;27.27;;;9.40;99.90;;;;;;5022821;28;35925;-77
2023/12/17 09:26:33;;;;;;;38.33;27.77;;;9.50;99.90;;;;;;5020070;28;37414;-77
2023/12/17 09:28:59;;;;;;;38.07;26.97;;;9.50;99.90;;;;;;5023077;28;38212;-77
2023/12/17 09:31:26;;;;;;;41.43;28.00;;;9.50;99.90;;;;;;5029079;28;37210;-77
2023/12/17 09:33:52;;;;;;;48.40;29.80;;;9.50;99.90;;;;;;5028106;28;36462;-77
2023/12/17 09:36:18;;;;;;;44.43;28.87;;;9.50;99.90;;;;;;5025085;28;39242;-78
2023/12/17 09:38:44;;;;;;;40.20;27.83;;;9.50;99.90;;;;;;5013226;28;37729;-77
2023/12/17 09:41:11;;;;;;;40.07;29.07;;;9.60;99.90;;;;;;5018747;28;36835;-78
2023/12/17 09:43:37;;;;;;;40.67;28.73;;;9.50;99.90;;;;;;5019214;28;39447;-77
2023/12/17 09:46:03;;;;;;;39.97;27.87;;;9.50;99.90;;;;;;5024026;28;38532;-77
2023/12/17 09:48:29;;;;;;;40.73;27.83;;;9.50;99.90;;;;;;5028184;28;38184;-77
2023/12/17 09:50:55;;;;;;;41.17;26.73;;;9.40;99.90;;;;;;5026171;28;37553;-78
2023/12/17 09:53:22;;;;;;;43.37;26.53;;;9.50;99.90;;;;;;5021719;28;36393;-77
2023/12/17 09:55:48;;;;;;;41.80;27.37;;;9.50;99.90;;;;;;5036608;28;41646;-78
2023/12/17 09:58:14;;;;;;;44.83;27.77;;;9.60;99.90;;;;;;5039537;28;38191;-79
2023/12/17 10:00:42;;;;;;;46.17;27.27;;;9.60;99.90;;;;;;5036480;28;37225;-79
2023/12/17 10:03:12;;;;;;;44.00;26.37;;;9.60;99.90;;;;;;5036037;28;36992;-79
2023/12/17 10:05:39;;;;;;;40.30;23.27;;;9.60;99.90;;;;;;5035480;28;37820;-79
2023/12/17 10:08:05;;;;;;;38.97;22.30;;;9.60;99.90;;;;;;5035758;28;38501;-79
2023/12/17 10:10:31;;;;;;;42.97;23.53;;;9.60;99.90;;;;;;5032514;28;38729;-79
2023/12/17 10:12:58;;;;;;;38.03;22.00;;;9.60;99.90;;;;;;5035791;28;37191;-78
2023/12/17 10:15:25;;;;;;;32.90;20.67;;;9.60;99.90;;;;;;5051132;28;38913;-78
2023/12/17 10:17:51;;;;;;;37.97;22.37;;;9.70;99.90;;;;;;5032961;28;39204;-79
2023/12/17 10:20:19;;;;;;;40.63;23.10;;;9.80;99.90;;;;;;5033350;28;37310;-78
2023/12/17 10:22:58;;;;;;;37.10;24.23;;;9.70;99.90;;;;;;5034250;28;37740;-78
2023/12/17 10:25:25;;;;;;;41.60;28.00;;;9.80;99.90;;;;;;5033070;28;37950;-79
2023/12/17 10:27:55;;;;;;;50.60;29.63;;;9.80;99.90;;;;;;5029877;28;37200;-78
2023/12/17 10:30:26;;;;;;;46.67;28.13;;;9.60;99.90;;;;;;5034801;28;38299;-79
2023/12/17 10:32:53;;;;;;;50.53;28.57;;;9.50;99.90;;;;;;5032615;28;36351;-79
2023/12/17 10:35:22;;;;;;;48.30;27.60;;;9.60;99.90;;;;;;5029564;28;38561;-79
2023/12/17 10:37:56;;;;;;;48.67;26.23;;;9.60;99.90;;;;;;5030534;28;37350;-78
2023/12/17 10:40:24;;;;;;;45.33;25.97;;;9.60;99.90;;;;;;5031121;28;37549;-78
2023/12/17 10:42:53;;;;;;;58.07;24.70;;;9.60;99.90;;;;;;5028444;28;37392;-78
2023/12/17 10:45:20;;;;;;;37.90;22.57;;;9.60;99.90;;;;;;5028140;28;37963;-78
2023/12/17 10:47:56;;;;;;;34.17;20.73;;;9.60;99.90;;;;;;5031284;28;37518;-79
2023/12/17 10:50:24;;;;;;;38.87;19.70;;;9.60;99.90;;;;;;5025896;28;36483;-78
2023/12/17 10:52:51;;;;;;;37.47;18.13;;;9.60;99.90;;;;;;5031004;28;37735;-79
2023/12/17 10:55:18;;;;;;;42.53;18.30;;;9.80;99.90;;;;;;5030734;28;37553;-79
2023/12/17 10:57:50;;;;;;;35.43;16.23;;;9.80;99.90;;;;;;5027645;28;37541;-78
2023/12/17 11:00:19;;;;;;;35.25;16.27;;;9.80;99.90;;;;;;5028910;28;36917;-79
2023/12/17 11:02:50;;;;;;;34.57;18.07;;;9.80;99.90;;;;;;5023073;28;36246;-79
2023/12/17 11:05:16;;;;;;;33.63;16.87;;;9.70;99.90;;;;;;5028477;28;40064;-78
2023/12/17 11:07:43;;;;;;;34.30;19.67;;;9.60;99.90;;;;;;5025223;28;37205;-78
2023/12/17 11:10:12;;;;;;;44.80;20.40;;;9.60;99.90;;;;;;5026393;28;36556;-79
2023/12/17 11:12:45;;;;;;;39.50;21.03;;;9.60;99.90;;;;;;5029495;28;36618;-79
2023/12/17 11:15:12;;;;;;;39.33;21.50;;;9.50;99.90;;;;;;5026527;28;38710;-79
2023/12/17 11:17:39;;;;;;;44.37;20.97;;;9.50;99.90;;;;;;5026325;28;37153;-79
2023/12/17 11:20:07;;;;;;;38.60;19.17;;;9.60;99.90;;;;;;5023856;28;37088;-79
2023/12/17 11:22:37;;;;;;;41.53;18.87;;;9.60;99.90;;;;;;5016752;28;37623;-79
2023/12/17 11:25:06;;;;;;;39.43;18.47;;;9.60;99.90;;;;;;5018826;28;37699;-78
2023/12/17 11:27:34;;;;;;;36.67;16.90;;;9.70;99.90;;;;;;5049269;28;46729;-79
2023/12/17 11:30:00;;;;;;;28.07;15.93;;;9.80;99.90;;;;;;5031851;28;38625;-79
2023/12/17 11:32:29;;;;;;;31.60;14.17;;;9.70;99.90;;;;;;5033102;28;38105;-79
2023/12/17 11:34:57;;;;;;;31.87;13.17;;;9.80;99.90;;;;;;5031402;28;37681;-79
2023/12/17 11:37:29;;;;;;;31.77;12.43;;;9.80;99.90;;;;;;5031954;28;39305;-79
2023/12/17 11:39:56;;;;;;;19.42;9.98;;;9.90;99.90;;;;;;5030958;28;36532;-79
2023/12/17 11:42:22;;;;;;;27.57;10.83;;;9.90;99.90;;;;;;5026458;28;38489;-79
2023/12/17 11:44:50;;;;;;;28.13;10.90;;;9.90;99.90;;;;;;5032460;28;38271;-79
2023/12/17 11:47:18;;;;;;;29.23;10.83;;;10.00;99.90;;;;;;5026522;28;38492;-79
2023/12/17 11:49:44;;;;;;;24.33;9.93;;;10.00;99.90;;;;;;5031774;28;37358;-78
2023/12/17 11:52:15;;;;;;;30.57;10.23;;;10.00;99.90;;;;;;5030925;28;38266;-78
2023/12/17 11:54:45;;;;;;;30.77;11.20;;;10.10;99.90;;;;;;5024099;28;38403;-79
2023/12/17 11:57:21;;;;;;;32.77;10.13;;;10.10;99.90;;;;;;5029688;28;37957;-79
2023/12/17 11:59:47;;;;;;;24.20;9.17;;;10.10;99.90;;;;;;5029831;28;37331;-80
2023/12/17 12:02:22;;;;;;;26.43;9.13;;;10.20;99.90;;;;;;5041567;28;36312;-79
2023/12/17 12:04:50;;;;;;;23.43;8.53;;;10.20;99.90;;;;;;5031853;28;39489;-79
2023/12/17 12:07:18;;;;;;;30.47;9.27;;;10.30;99.90;;;;;;5035372;28;37396;-80
2023/12/17 12:09:47;;;;;;;23.83;9.17;;;10.30;99.90;;;;;;5033111;28;36934;-79
2023/12/17 12:12:25;;;;;;;22.10;8.40;;;10.40;99.90;;;;;;5038759;28;38506;-79
2023/12/17 12:14:51;;;;;;;28.70;9.90;;;10.40;99.90;;;;;;5040965;28;38930;-80
2023/12/17 12:17:41;;;;;;;26.90;9.37;;;10.40;99.90;;;;;;5039930;28;37258;-80
2023/12/17 12:20:12;;;;;;;21.73;8.20;;;10.30;99.90;;;;;;5046944;28;39035;-81
2023/12/17 12:22:45;;;;;;;33.13;9.53;;;10.30;99.90;;;;;;5046493;28;38069;-79
2023/12/17 12:25:20;;;;;;;27.93;9.40;;;10.30;99.90;;;;;;5034930;28;38683;-79
2023/12/17 12:27:48;;;;;;;29.40;9.57;;;10.30;99.90;;;;;;5013554;28;40349;-79
2023/12/17 12:30:25;;;;;;;29.10;9.13;;;10.30;99.90;;;;;;5029918;28;37743;-79
2023/12/17 12:32:51;;;;;;;18.40;7.87;;;10.30;99.90;;;;;;5028665;28;38657;-79
2023/12/17 12:35:23;;;;;;;24.87;9.50;;;10.30;99.90;;;;;;5029592;28;38578;-79
2023/12/17 12:37:49;;;;;;;20.33;8.27;;;10.30;99.90;;;;;;5033663;22;38991;-79
2023/12/17 12:40:28;;;;;;;20.07;7.33;;;10.30;99.90;;;;;;5067345;28;35072;-80
2023/12/17 12:43:02;;;;;;;25.40;7.73;;;10.30;99.90;;;;;;5070533;28;37380;-81
2023/12/17 12:45:28;;;;;;;26.87;8.27;;;10.30;99.90;;;;;;5069706;28;48058;-80
2023/12/17 12:47:56;;;;;;;22.10;7.83;;;10.30;99.90;;;;;;5088104;28;38660;-80
2023/12/17 12:50:23;;;;;;;13.80;6.67;;;10.30;99.90;;;;;;5077413;28;38972;-78
2023/12/17 12:52:56;;;;;;;19.57;7.90;;;10.30;99.90;;;;;;5074266;28;37134;-79
2023/12/17 12:55:22;;;;;;;23.40;7.07;;;10.30;99.90;;;;;;5073511;28;39980;-79
2023/12/17 12:57:59;;;;;;;16.73;6.10;;;10.30;99.90;;;;;;5075954;28;38467;-80
2023/12/17 13:00:26;;;;;;;28.10;7.57;;;10.30;99.90;;;;;;5070325;28;37794;-79